createdAt,value
2023-05-19T00:02:21.095Z,70.84
2023-05-19T00:05:23.109Z,71.12
2023-05-19T00:08:31.314Z,70.99
2023-05-19T00:11:36.160Z,69.96
2023-05-19T00:14:37.836Z,68.18
2023-05-19T00:17:42.457Z,68.77
2023-05-19T00:24:07.247Z,70.32
2023-05-19T00:27:09.124Z,71.58
2023-05-19T00:30:11.119Z,73.56
2023-05-19T00:33:12.776Z,74.13
2023-05-19T00:36:14.668Z,74.86
2023-05-19T00:39:16.326Z,75.42
2023-05-19T00:42:17.957Z,76.19
2023-05-19T00:45:19.579Z,77.44
2023-05-19T00:48:25.304Z,77.43
2023-05-19T00:51:33.215Z,77.60
2023-05-19T00:54:38.356Z,77.64
2023-05-19T00:57:50.311Z,78.53
2023-05-19T01:00:52.145Z,79.06
2023-05-19T01:03:59.207Z,78.94
2023-05-19T01:07:08.915Z,78.94
2023-05-19T01:10:10.741Z,78.45
2023-05-19T01:13:13.899Z,77.71
2023-05-19T01:16:18.564Z,77.69
2023-05-19T01:19:52.879Z,77.95
2023-05-19T01:23:10.979Z,78.23
2023-05-19T01:26:50.220Z,78.76
2023-05-19T01:30:29.371Z,78.36
2023-05-19T01:33:43.567Z,78.60
2023-05-19T01:36:48.624Z,78.76
2023-05-19T01:39:50.391Z,79.29
2023-05-19T01:42:58.291Z,79.59
2023-05-19T01:46:04.453Z,79.84
2023-05-19T01:49:06.671Z,80.31
2023-05-19T01:52:11.392Z,80.40
2023-05-19T01:55:13.868Z,80.45
2023-05-19T02:01:59.097Z,82.23
2023-05-19T02:05:21.454Z,84.64
2023-05-19T02:08:31.187Z,85.24
2023-05-19T02:12:08.463Z,85.54
2023-05-19T02:15:15.956Z,85.95
2023-05-19T02:18:20.251Z,84.93
2023-05-19T02:21:28.478Z,84.96
2023-05-19T02:27:45.768Z,86.24
2023-05-19T02:30:47.426Z,86.07
2023-05-19T02:33:54.964Z,85.86
2023-05-19T02:36:56.600Z,86.52
2023-05-19T02:40:10.964Z,86.44
2023-05-19T02:43:20.079Z,87.05
2023-05-19T02:46:21.801Z,87.06
2023-05-19T02:49:23.486Z,87.11
2023-05-19T02:52:28.068Z,87.49
2023-05-19T02:55:37.121Z,87.45
2023-05-19T02:58:55.327Z,87.30
2023-05-19T03:02:02.810Z,87.68
2023-05-19T03:05:07.033Z,87.30
2023-05-19T03:08:09.284Z,87.47
2023-05-19T03:11:13.782Z,87.47
2023-05-19T03:14:15.383Z,87.41
2023-05-19T03:17:19.245Z,87.08
2023-05-19T03:20:20.862Z,87.15
2023-05-19T03:23:26.450Z,86.90
2023-05-19T03:26:29.281Z,86.04
2023-05-19T03:29:37.623Z,85.71
2023-05-19T03:32:42.012Z,86.08
2023-05-19T03:35:44.444Z,85.93
2023-05-19T03:38:53.307Z,85.38
2023-05-19T03:41:57.963Z,85.75
2023-05-19T03:48:27.596Z,85.91
2023-05-19T03:51:50.361Z,85.53
2023-05-19T03:55:09.059Z,86.86
2023-05-19T03:58:12.822Z,86.59
2023-05-19T04:01:14.425Z,87.14
2023-05-19T04:04:27.153Z,86.71
2023-05-19T04:07:28.730Z,87.26
2023-05-19T04:10:32.198Z,87.32
2023-05-19T04:13:34.451Z,87.55
2023-05-19T04:16:37.280Z,87.46
2023-05-19T04:19:38.856Z,87.80
2023-05-19T04:22:40.924Z,88.48
2023-05-19T04:25:42.700Z,88.07
2023-05-19T04:28:47.028Z,88.15
2023-05-19T04:31:52.749Z,87.90
2023-05-19T04:34:56.870Z,88.87
2023-05-19T04:38:07.766Z,88.58
2023-05-19T04:41:13.961Z,89.15
2023-05-19T04:44:18.246Z,90.17
2023-05-19T04:47:22.537Z,88.54
2023-05-19T04:50:24.814Z,88.73
2023-05-19T04:53:29.944Z,88.83
2023-05-19T04:56:51.337Z,89.29
2023-05-19T05:00:01.859Z,88.59
2023-05-19T05:03:18.490Z,88.43
2023-05-19T05:06:28.519Z,88.77
2023-05-19T05:09:31.966Z,89.04
2023-05-19T05:15:54.128Z,88.23
2023-05-19T05:19:05.654Z,87.97
2023-05-19T05:22:08.428Z,88.05
2023-05-19T05:25:19.888Z,87.55
2023-05-19T05:28:21.581Z,87.79
2023-05-19T05:31:48.314Z,87.51
2023-05-19T05:34:50.796Z,87.57
2023-05-19T05:37:58.826Z,86.64
2023-05-19T05:41:03.001Z,87.07
2023-05-19T05:44:13.501Z,85.30
2023-05-19T05:47:18.331Z,85.60
2023-05-19T05:50:24.341Z,85.26
2023-05-19T05:53:32.074Z,84.31
2023-05-19T05:56:41.159Z,85.26
2023-05-19T05:59:45.418Z,84.28
2023-05-19T06:03:04.429Z,83.84
2023-05-19T06:06:13.501Z,84.16
2023-05-19T06:09:18.584Z,83.35
2023-05-19T06:12:20.281Z,82.70
2023-05-19T06:15:24.705Z,81.21
2023-05-19T06:18:46.645Z,82.48
2023-05-19T06:22:14.135Z,81.84
2023-05-19T06:25:19.196Z,81.99
2023-05-19T06:28:20.935Z,81.24
2023-05-19T06:31:33.658Z,80.94
2023-05-19T06:34:46.330Z,80.75
2023-05-19T06:37:55.737Z,78.56
2023-05-19T06:41:00.042Z,79.80
2023-05-19T06:44:01.687Z,81.06
2023-05-19T06:47:09.761Z,80.12
2023-05-19T06:50:11.332Z,78.61
2023-05-19T06:53:19.934Z,79.37
2023-05-19T06:56:25.167Z,78.53
2023-05-19T06:59:26.968Z,77.02
2023-05-19T07:02:29.412Z,77.36
2023-05-19T07:05:31.070Z,76.76
2023-05-19T07:08:37.130Z,75.24
2023-05-19T07:11:40.020Z,74.70
2023-05-19T07:14:43.119Z,76.93
2023-05-19T07:17:49.116Z,73.72
2023-05-19T07:20:52.798Z,70.09
2023-05-19T07:23:58.730Z,69.31
2023-05-19T07:27:04.259Z,70.90
2023-05-19T07:30:06.396Z,67.96
2023-05-19T07:33:08.219Z,67.85
2023-05-19T07:36:17.099Z,67.78
2023-05-19T07:39:19.029Z,69.16
2023-05-19T07:42:20.666Z,67.10
2023-05-19T07:45:25.464Z,68.59
2023-05-19T07:48:29.114Z,69.70
2023-05-19T07:51:55.888Z,62.98
2023-05-19T07:54:59.105Z,62.27
2023-05-19T07:58:00.708Z,62.04
2023-05-19T08:01:02.211Z,63.73
2023-05-19T08:04:03.848Z,61.81
2023-05-19T08:07:07.209Z,61.45
2023-05-19T08:10:08.961Z,63.64
2023-05-19T08:13:10.518Z,61.37
2023-05-19T08:16:12.105Z,63.25
2023-05-19T08:19:13.677Z,62.14
2023-05-19T08:22:18.484Z,65.21
2023-05-19T08:25:20.132Z,65.66
2023-05-19T08:28:21.634Z,64.34
2023-05-19T08:31:23.291Z,62.57
2023-05-19T08:34:24.977Z,62.42
2023-05-19T08:37:28.822Z,64.73
2023-05-19T08:47:15.205Z,64.58
2023-05-19T08:50:46.548Z,64.76
2023-05-19T08:53:51.705Z,63.38
2023-05-19T08:56:57.775Z,63.64
2023-05-19T09:00:12.817Z,61.50
2023-05-19T09:03:23.184Z,62.13
2023-05-19T09:06:32.320Z,62.21
2023-05-19T09:09:36.383Z,63.95
2023-05-19T09:12:38.015Z,65.48
2023-05-19T09:15:41.291Z,64.13
2023-05-19T09:18:58.921Z,63.15
2023-05-19T09:22:08.774Z,64.82
2023-05-19T09:25:30.706Z,65.33
2023-05-19T09:28:34.490Z,65.80
2023-05-19T09:31:39.677Z,64.92
2023-05-19T09:34:49.459Z,64.07
2023-05-19T09:37:53.154Z,62.25
2023-05-19T09:40:59.373Z,63.27
2023-05-19T09:44:02.242Z,62.37
2023-05-19T09:47:12.260Z,62.10
2023-05-19T09:50:17.353Z,64.50
2023-05-19T09:53:22.392Z,60.81
2023-05-19T09:56:25.534Z,59.13
2023-05-19T09:59:32.487Z,55.93
2023-05-19T10:02:35.929Z,54.78
2023-05-19T10:05:38.460Z,54.18
2023-05-19T10:08:42.323Z,56.30
2023-05-19T10:11:44.417Z,55.23
2023-05-19T10:14:48.736Z,56.34
2023-05-19T10:17:53.592Z,53.97
2023-05-19T10:20:57.714Z,55.27
2023-05-19T10:23:59.314Z,54.89
2023-05-19T10:27:05.826Z,54.06
2023-05-19T10:30:20.651Z,54.51
2023-05-19T10:33:28.860Z,53.87
2023-05-19T10:37:01.691Z,54.55
2023-05-19T10:40:16.942Z,54.53
2023-05-19T10:43:39.320Z,52.93
2023-05-19T10:46:47.168Z,53.94
2023-05-19T10:49:48.830Z,52.68
2023-05-19T10:52:56.615Z,54.30
2023-05-19T10:56:02.570Z,53.72
2023-05-19T10:59:31.829Z,53.64
2023-05-19T11:02:38.966Z,53.98
2023-05-19T11:05:41.141Z,53.86
2023-05-19T11:08:44.906Z,54.54
2023-05-19T11:11:55.191Z,55.92
2023-05-19T11:18:16.147Z,54.37
2023-05-19T11:21:52.416Z,54.75
2023-05-19T11:24:55.469Z,54.98
2023-05-19T11:31:13.292Z,54.31
2023-05-19T11:34:25.687Z,54.89
2023-05-19T11:37:31.205Z,54.30
2023-05-19T11:40:43.228Z,54.22
2023-05-19T11:43:47.801Z,54.38
2023-05-19T11:46:49.639Z,54.44
2023-05-19T11:50:00.559Z,55.41
2023-05-19T11:53:05.840Z,51.83
2023-05-19T11:56:11.717Z,51.61
2023-05-19T11:59:13.945Z,52.53
2023-05-19T12:02:21.653Z,53.14
2023-05-19T12:05:30.054Z,52.58
2023-05-19T12:08:31.833Z,53.13
2023-05-19T12:11:37.906Z,52.28
2023-05-19T12:14:40.301Z,51.45
2023-05-19T12:17:46.561Z,51.84
2023-05-19T12:20:48.486Z,51.88
2023-05-19T12:27:12.285Z,53.16
2023-05-19T12:30:17.298Z,53.73
2023-05-19T12:33:25.653Z,53.56
2023-05-19T12:36:28.567Z,53.38
2023-05-19T12:39:32.425Z,53.50
2023-05-19T12:42:35.344Z,54.39
2023-05-19T12:45:38.690Z,51.43
2023-05-19T12:48:50.007Z,52.20
2023-05-19T12:52:12.814Z,52.84
2023-05-19T12:55:16.368Z,52.11
2023-05-19T12:58:19.598Z,53.35
2023-05-19T13:01:22.715Z,52.39
2023-05-19T13:04:26.086Z,53.72
2023-05-19T13:07:27.960Z,52.16
2023-05-19T13:10:31.319Z,50.33
2023-05-19T13:13:36.382Z,51.46
2023-05-19T13:16:40.983Z,52.83
2023-05-19T13:19:42.649Z,52.07
2023-05-19T13:22:46.587Z,51.65
2023-05-19T13:25:50.863Z,53.95
2023-05-19T13:32:12.972Z,53.43
2023-05-19T13:35:18.199Z,51.76
2023-05-19T13:38:24.928Z,51.39
2023-05-19T13:41:29.512Z,51.87
2023-05-19T13:44:40.169Z,51.75
2023-05-19T13:47:45.779Z,51.90
2023-05-19T13:50:55.561Z,51.67
2023-05-19T13:53:59.559Z,52.34
2023-05-19T13:57:12.450Z,54.30
2023-05-19T14:00:14.536Z,53.38
2023-05-19T14:03:19.673Z,52.93
2023-05-19T14:06:21.717Z,54.42
2023-05-19T14:09:23.284Z,52.76
2023-05-19T14:12:38.019Z,53.21
2023-05-19T14:15:45.123Z,54.40
2023-05-19T14:18:48.833Z,53.65
2023-05-19T14:21:53.083Z,54.49
2023-05-19T14:24:57.055Z,54.01
2023-05-19T14:27:58.630Z,54.77
2023-05-19T14:31:00.310Z,52.00
2023-05-19T14:34:05.206Z,53.16
2023-05-19T14:37:07.093Z,53.20
2023-05-19T14:40:09.008Z,53.70
2023-05-19T14:43:13.529Z,53.10
2023-05-19T14:46:15.243Z,55.48
2023-05-19T14:49:16.894Z,55.47
2023-05-19T14:52:18.672Z,55.43
2023-05-19T14:55:22.421Z,54.73
2023-05-19T14:58:29.203Z,55.84
2023-05-19T15:01:32.550Z,54.69
2023-05-19T15:04:36.545Z,53.84
2023-05-19T15:07:38.115Z,54.18
2023-05-19T15:10:41.771Z,54.73
2023-05-19T15:13:43.349Z,53.49
2023-05-19T15:16:52.301Z,54.30
2023-05-19T15:19:54.847Z,54.17
2023-05-19T15:22:59.424Z,54.52
2023-05-19T15:26:01.927Z,55.70
2023-05-19T15:29:03.778Z,54.62
2023-05-19T15:32:09.817Z,56.03
2023-05-19T15:35:17.407Z,54.69
2023-05-19T15:38:22.869Z,56.93
2023-05-19T15:41:26.493Z,55.95
2023-05-19T15:44:29.117Z,56.12
2023-05-19T15:47:33.906Z,55.13
2023-05-19T15:50:38.272Z,54.56
2023-05-19T15:57:02.886Z,56.73
2023-05-19T16:00:11.218Z,57.79
2023-05-19T16:03:12.859Z,57.96
2023-05-19T16:06:29.870Z,58.79
2023-05-19T16:09:31.481Z,61.16
2023-05-19T16:12:33.686Z,61.13
2023-05-19T16:18:52.454Z,62.05
2023-05-19T16:21:54.161Z,61.25
2023-05-19T16:24:55.824Z,61.61
2023-05-19T16:27:57.728Z,61.58
2023-05-19T16:31:00.190Z,61.65
2023-05-19T16:34:01.914Z,60.82
2023-05-19T16:37:05.609Z,59.41
2023-05-19T16:40:10.058Z,58.40
2023-05-19T16:43:29.927Z,59.63
2023-05-19T16:46:34.354Z,58.49
2023-05-19T16:49:40.916Z,59.55
2023-05-19T16:52:42.547Z,59.83
2023-05-19T16:55:44.942Z,59.56
2023-05-19T16:58:46.557Z,59.59
2023-05-19T17:01:48.200Z,59.16
2023-05-19T17:04:55.917Z,58.00
2023-05-19T17:07:57.584Z,58.63
2023-05-19T17:11:02.333Z,58.98
2023-05-19T17:14:09.797Z,58.99
2023-05-19T17:17:18.961Z,59.46
2023-05-19T17:20:20.725Z,59.91
2023-05-19T17:23:35.845Z,58.95
2023-05-19T17:26:37.407Z,59.54
2023-05-19T17:29:38.989Z,59.38
2023-05-19T17:32:43.816Z,61.12
2023-05-19T17:35:46.022Z,60.43
2023-05-19T17:38:50.803Z,60.94
2023-05-19T17:41:54.079Z,60.21
2023-05-19T17:48:15.086Z,59.41
2023-05-19T17:51:19.286Z,61.95
2023-05-19T17:54:29.378Z,60.49
2023-05-19T17:57:41.299Z,60.24
2023-05-19T18:00:43.086Z,61.47
2023-05-19T18:03:49.526Z,61.50
2023-05-19T18:06:52.736Z,62.24
2023-05-19T18:09:56.274Z,62.15
2023-05-19T18:12:57.871Z,62.41
2023-05-19T18:16:02.193Z,63.34
2023-05-19T18:19:04.153Z,61.87
2023-05-19T18:22:06.216Z,61.99
2023-05-19T18:25:08.619Z,63.48
2023-05-19T18:31:34.999Z,65.15
2023-05-19T18:34:38.903Z,67.69
2023-05-19T18:37:40.598Z,68.69
2023-05-19T18:40:45.495Z,66.72
2023-05-19T18:43:59.270Z,70.76
2023-05-19T18:47:07.186Z,70.27
2023-05-19T18:50:14.896Z,70.09
2023-05-19T18:53:18.620Z,68.43
2023-05-19T18:56:28.180Z,68.75
2023-05-19T18:59:31.837Z,69.79
2023-05-19T19:02:36.686Z,71.02
2023-05-19T19:05:38.333Z,71.11
2023-05-19T19:08:39.975Z,69.92
2023-05-19T19:11:43.165Z,70.18
2023-05-19T19:18:08.636Z,70.99
2023-05-19T19:21:13.286Z,72.64
2023-05-19T19:30:47.569Z,73.68
2023-05-19T19:33:49.191Z,74.07
2023-05-19T19:36:50.772Z,73.83
2023-05-19T19:39:52.373Z,73.62
2023-05-19T19:42:54.188Z,74.33
2023-05-19T19:46:06.994Z,74.94
2023-05-19T19:49:08.650Z,75.06
2023-05-19T19:52:20.683Z,74.23
2023-05-19T19:55:26.863Z,74.82
2023-05-19T19:58:36.078Z,77.30
2023-05-19T20:01:38.238Z,77.14
2023-05-19T20:04:50.138Z,76.99
2023-05-19T20:07:58.901Z,75.30
2023-05-19T20:11:03.583Z,73.55
2023-05-19T20:14:05.189Z,71.47
2023-05-19T20:17:06.777Z,72.12
2023-05-19T20:20:10.734Z,72.88
2023-05-19T20:23:16.183Z,73.93
2023-05-19T20:26:20.436Z,75.50
2023-05-19T20:29:28.399Z,75.45
2023-05-19T20:32:32.622Z,73.73
2023-05-19T20:35:34.490Z,74.24
2023-05-19T20:38:36.309Z,73.50
2023-05-19T20:41:40.973Z,75.14
2023-05-19T20:44:42.811Z,77.55
2023-05-19T20:47:50.616Z,78.27
2023-05-19T20:50:53.685Z,76.71
2023-05-19T20:53:58.047Z,75.76
2023-05-19T20:56:59.654Z,76.67
2023-05-19T21:00:04.722Z,76.65
2023-05-19T21:03:08.288Z,76.58
2023-05-19T21:06:12.857Z,76.32
2023-05-19T21:09:18.315Z,76.26
2023-05-19T21:12:33.825Z,75.41
2023-05-19T21:15:36.325Z,75.35
2023-05-19T21:18:40.076Z,75.80
2023-05-19T21:21:42.906Z,76.96
2023-05-19T21:24:46.909Z,77.63
2023-05-19T21:27:48.563Z,78.85
2023-05-19T21:30:53.211Z,78.59
2023-05-19T21:33:54.854Z,77.91
2023-05-19T21:36:58.755Z,76.71
2023-05-19T21:40:09.781Z,77.66
2023-05-19T21:43:37.400Z,79.85
2023-05-19T21:46:41.161Z,80.45
2023-05-19T21:49:45.092Z,80.92
2023-05-19T21:52:49.648Z,81.35
2023-05-19T21:55:51.593Z,81.63
2023-05-19T21:58:53.212Z,81.03
2023-05-19T22:01:57.162Z,80.33
2023-05-19T22:04:58.782Z,80.22
2023-05-19T22:08:00.850Z,80.47
2023-05-19T22:11:04.645Z,80.86
2023-05-19T22:14:06.956Z,82.04
2023-05-19T22:17:08.517Z,81.27
2023-05-19T22:20:10.515Z,81.14
2023-05-19T22:23:21.607Z,82.31
2023-05-19T22:26:25.274Z,83.36
2023-05-19T22:29:29.874Z,83.31
2023-05-19T22:39:05.699Z,82.47
2023-05-19T22:42:14.429Z,81.55
2023-05-19T22:45:16.526Z,80.06
2023-05-19T22:48:21.184Z,78.54
2023-05-19T22:54:48.489Z,78.26
2023-05-19T22:57:51.482Z,76.66
2023-05-19T23:00:53.060Z,77.01
2023-05-19T23:03:54.750Z,76.45
2023-05-19T23:06:56.420Z,76.60
2023-05-19T23:09:58.162Z,76.46
2023-05-19T23:13:01.933Z,77.20
2023-05-19T23:16:04.710Z,76.81
2023-05-19T23:19:12.270Z,76.97
2023-05-19T23:22:13.863Z,76.74
2023-05-19T23:25:15.534Z,77.10
2023-05-19T23:28:27.353Z,77.57
2023-05-19T23:34:44.360Z,76.38
2023-05-19T23:37:48.236Z,76.55
2023-05-19T23:40:51.997Z,75.66
2023-05-19T23:43:54.569Z,76.29
2023-05-19T23:46:59.420Z,76.74
2023-05-19T23:50:01.530Z,76.66
2023-05-19T23:53:08.159Z,76.82
2023-05-19T23:56:10.604Z,76.87
2023-05-19T23:59:12.195Z,76.70
